Time;durP1;ratioP1;P1;durP2;ratioP2;P2;SDS_P1;SDS_P2;PMS_P1;PMS_P2;Temp;Humidity;BMP_temperature;BMP_pressure;BME280_temperature;BME280_humidity;BME280_pressure;Samples;Min_cycle;Max_cycle;Signal;HPM_P1;HPM_P2
2022/10/17 00:01:02;;;;;;;10.95;4.10;;;;;;;14.51;100.00;101482.13;4753090;30;20044;-55
2022/10/17 00:03:30;;;;;;;6.30;3.72;;;;;;;14.52;100.00;101478.28;4752793;30;20051;-55
2022/10/17 00:05:58;;;;;;;10.07;4.03;;;;;;;14.55;100.00;101488.72;4748810;30;20426;-56
2022/10/17 00:08:25;;;;;;;7.03;3.80;;;;;;;14.59;100.00;101495.28;4754244;30;20440;-56
2022/10/17 00:11:17;;;;;;;7.30;3.78;;;;;;;14.59;100.00;101489.81;4751719;30;20585;-55
2022/10/17 00:13:46;;;;;;;10.38;3.90;;;;;;;14.60;100.00;101491.44;4746503;30;20460;-53
2022/10/17 00:16:24;;;;;;;6.88;3.90;;;;;;;14.59;100.00;101485.13;4753315;30;20050;-53
2022/10/17 00:18:51;;;;;;;6.75;4.00;;;;;;;14.60;100.00;101480.47;4754056;30;20049;-56
2022/10/17 00:21:20;;;;;;;6.53;3.97;;;;;;;14.60;100.00;101485.94;4751692;30;20523;-55
2022/10/17 00:23:48;;;;;;;7.65;4.35;;;;;;;14.61;100.00;101479.38;4749701;30;20433;-56
2022/10/17 00:26:16;;;;;;;7.60;4.32;;;;;;;14.60;100.00;101469.50;4753787;30;20056;-55
2022/10/17 00:28:48;;;;;;;7.65;3.70;;;;;;;14.60;100.00;101469.50;4753687;30;20052;-56
2022/10/17 00:31:17;;;;;;;7.75;4.18;;;;;;;14.58;100.00;101472.53;4749197;30;20496;-56
2022/10/17 00:33:45;;;;;;;9.27;4.60;;;;;;;14.58;100.00;101466.22;4749218;30;20044;-53
2022/10/17 00:36:23;;;;;;;8.27;4.10;;;;;;;14.58;100.00;101467.06;4738083;30;20079;-56
2022/10/17 00:38:52;;;;;;;;;;;;;;;14.57;100.00;101467.31;4752682;30;20044;-54
2022/10/17 00:41:23;;;;;;;6.43;4.13;;;;;;;14.58;100.00;101467.06;4753490;30;19988;-57
2022/10/17 00:43:55;;;;;;;9.50;3.80;;;;;;;14.57;100.00;101461.84;4751499;30;20048;-56
2022/10/17 00:46:25;;;;;;;6.45;4.00;;;;;;;14.58;100.00;101449.78;4755202;30;20044;-52
2022/10/17 00:48:54;;;;;;;6.47;4.00;;;;;;;14.58;100.00;101460.75;4752485;30;20098;-56
2022/10/17 00:51:31;;;;;;;8.48;4.40;;;;;;;14.59;100.00;101467.88;4746075;30;20102;-56
2022/10/17 00:54:00;;;;;;;9.57;4.10;;;;;;;14.60;100.00;101461.28;4752100;30;20094;-55
2022/10/17 00:56:28;;;;;;;7.32;4.40;;;;;;;14.60;100.00;101461.28;4751521;30;20133;-55
2022/10/17 00:58:55;;;;;;;6.47;4.20;;;;;;;14.62;100.00;101467.31;4734588;30;20448;-54
2022/10/17 01:01:23;;;;;;;10.15;4.50;;;;;;;14.63;100.00;101466.22;4758470;30;20131;-54
2022/10/17 01:03:51;;;;;;;6.30;4.13;;;;;;;14.63;100.00;101463.47;4737088;30;20040;-56
2022/10/17 01:06:19;;;;;;;7.90;4.15;;;;;;;14.63;100.00;101460.72;4750262;30;20060;-51
2022/10/17 01:08:47;;;;;;;9.25;4.40;;;;;;;14.63;100.00;101461.53;4747954;30;20071;-54
2022/10/17 01:11:34;;;;;;;9.43;4.20;;;;;;;14.63;100.00;101463.47;4737322;30;20048;-55
2022/10/17 01:14:29;;;;;;;10.70;4.43;;;;;;;14.63;100.00;101457.97;4749230;30;20454;-56
2022/10/17 01:17:50;;;;;;;6.85;3.85;;;;;;;14.63;100.00;101447.00;4751628;30;20047;-57
2022/10/17 01:20:38;;;;;;;6.93;4.05;;;;;;;14.64;100.00;101440.41;4684047;30;20049;-56
2022/10/17 01:23:36;;;;;;;7.57;4.32;;;;;;;14.64;100.00;101445.91;4684162;30;20053;-55
2022/10/17 01:26:15;;;;;;;7.63;4.57;;;;;;;14.64;100.00;101440.41;4744078;30;20056;-54
2022/10/17 01:29:02;;;;;;;7.75;4.28;;;;;;;14.64;100.00;101441.22;4748722;30;20127;-57
2022/10/17 01:31:58;;;;;;;8.30;5.07;;;;;;;14.64;100.00;101454.94;4751654;30;20060;-57
2022/10/17 01:34:30;;;;;;;7.32;4.30;;;;;;;14.64;100.00;101454.13;4752204;30;20055;-58
2022/10/17 01:37:00;;;;;;;8.70;4.57;;;;;;;14.64;100.00;101443.16;4752410;30;20467;-56
2022/10/17 01:39:40;;;;;;;7.95;4.47;;;;;;;14.62;100.00;101448.09;4746142;30;20040;-52
2022/10/17 01:42:36;;;;;;;8.95;4.65;;;;;;;14.62;100.00;101437.97;4751455;30;20041;-56
2022/10/17 01:45:06;;;;;;;8.43;4.53;;;;;;;14.62;100.00;101443.47;4751612;30;20044;-56
2022/10/17 01:47:34;;;;;;;8.65;4.70;;;;;;;14.62;100.00;101437.13;4751374;30;20515;-56
2022/10/17 01:50:06;;;;;;;6.90;4.47;;;;;;;14.63;100.00;101433.31;4751461;30;20048;-53
2022/10/17 01:53:06;;;;;;;8.25;4.40;;;;;;;14.62;100.00;101427.00;4750152;30;20048;-56
2022/10/17 01:55:40;;;;;;;11.07;4.78;;;;;;;14.64;100.00;101426.69;4737041;30;20102;-59
2022/10/17 01:58:24;;;;;;;7.70;4.95;;;;;;;14.63;100.00;101425.88;4751070;30;20055;-55
2022/10/17 02:00:53;;;;;;;10.95;4.82;;;;;;;14.64;100.00;101432.19;4737384;30;20044;-56
2022/10/17 02:03:21;;;;;;;9.25;5.20;;;;;;;14.64;100.00;101432.19;4752895;30;20449;-57
2022/10/17 02:05:48;;;;;;;7.97;4.88;;;;;;;14.65;100.00;101433.84;4752974;30;20056;-56
2022/10/17 02:08:25;;;;;;;9.40;4.80;;;;;;;14.65;100.00;101433.84;4760732;30;20060;-57
2022/10/17 02:11:02;;;;;;;10.95;5.20;;;;;;;14.65;100.00;101431.09;4745963;30;20041;-55
2022/10/17 02:13:49;;;;;;;7.53;4.78;;;;;;;14.64;100.00;101429.44;4757739;30;20048;-54
2022/10/17 02:16:41;;;;;;;11.18;5.28;;;;;;;14.65;100.00;101429.19;4770708;30;20044;-55
2022/10/17 02:19:37;;;;;;;10.65;5.35;;;;;;;14.66;100.00;101430.00;4760875;30;20044;-55
2022/10/17 02:22:15;;;;;;;;;;;;;;;14.65;100.00;101428.38;4748897;30;20079;-50
2022/10/17 02:25:26;;;;;;;9.55;5.28;;;;;;;14.64;100.00;101427.53;4767652;30;19932;-53
2022/10/17 02:28:02;;;;;;;10.88;5.40;;;;;;;14.65;100.00;101422.88;4728112;30;20056;-53
2022/10/17 02:30:46;;;;;;;10.30;5.05;;;;;;;14.65;100.00;101425.63;4753652;30;20068;-52
2022/10/17 02:33:24;;;;;;;6.97;4.90;;;;;;;14.64;100.00;101421.22;4753387;30;20048;-56
2022/10/17 02:35:58;;;;;;;9.43;5.03;;;;;;;14.65;100.00;101422.88;4743160;30;20052;-54
2022/10/17 02:38:28;;;;;;;10.90;5.20;;;;;;;14.66;100.00;101427.25;4736191;30;20063;-56
2022/10/17 02:40:57;;;;;;;8.93;5.00;;;;;;;14.66;100.00;101425.31;4749367;30;20063;-56
2022/10/17 02:43:25;;;;;;;10.38;5.57;;;;;;;14.67;100.00;101428.88;4753026;30;20076;-56
2022/10/17 02:45:53;;;;;;;8.63;5.30;;;;;;;14.67;100.00;101426.13;4754267;30;20083;-52
2022/10/17 02:48:35;;;;;;;11.00;5.40;;;;;;;14.65;100.00;101418.22;4747336;30;20055;-56
2022/10/17 02:51:04;;;;;;;9.43;4.88;;;;;;;14.65;100.00;101422.88;4753031;30;20072;-52
2022/10/17 02:53:47;;;;;;;11.10;5.72;;;;;;;14.66;100.00;101421.75;4754225;30;20048;-53
2022/10/17 02:56:18;;;;;;;12.32;5.47;;;;;;;14.65;100.00;101417.41;4750379;30;20102;-52
2022/10/17 02:58:49;;;;;;;9.95;5.18;;;;;;;14.65;100.00;101420.13;4748188;30;20082;-56
2022/10/17 03:01:18;;;;;;;11.95;5.47;;;;;;;14.65;100.00;101426.44;4739735;30;20052;-54
2022/10/17 03:03:45;;;;;;;10.63;5.40;;;;;;;14.65;100.00;101417.41;4739676;30;20048;-57
2022/10/17 03:06:13;;;;;;;10.32;5.53;;;;;;;14.64;100.00;101418.47;4753405;30;20504;-57
2022/10/17 03:08:41;;;;;;;11.48;5.68;;;;;;;14.65;100.00;101433.84;4752517;30;20424;-56
2022/10/17 03:11:08;;;;;;;7.95;5.18;;;;;;;14.64;100.00;101423.97;4753644;30;20048;-57
2022/10/17 03:13:36;;;;;;;10.15;5.35;;;;;;;14.63;100.00;101430.56;4750324;30;20048;-56
2022/10/17 03:16:06;;;;;;;9.90;5.07;;;;;;;14.65;100.00;101423.69;4753961;30;20044;-53
2022/10/17 03:18:35;;;;;;;12.32;6.20;;;;;;;14.65;100.00;101417.41;4755057;30;20044;-57
2022/10/17 03:21:03;;;;;;;10.40;5.43;;;;;;;14.65;100.00;101420.13;4752561;30;20063;-54
2022/10/17 03:23:31;;;;;;;10.10;5.32;;;;;;;14.65;100.00;101418.22;4753496;30;20056;-53
2022/10/17 03:26:03;;;;;;;10.02;5.30;;;;;;;14.67;100.00;101423.38;4753134;30;20508;-51
2022/10/17 03:28:32;;;;;;;8.93;5.57;;;;;;;14.67;100.00;101417.91;4724469;30;20463;-51
2022/10/17 03:31:09;;;;;;;9.00;5.38;;;;;;;14.66;100.00;101424.50;4752431;30;20416;-56
2022/10/17 03:33:38;;;;;;;8.77;5.18;;;;;;;14.67;100.00;101423.38;4754086;30;20056;-56
2022/10/17 03:36:11;;;;;;;10.15;5.50;;;;;;;14.67;100.00;101426.13;4753351;30;20048;-52
2022/10/17 03:38:39;;;;;;;12.13;5.13;;;;;;;14.67;100.00;101432.47;4761571;30;20041;-54
2022/10/17 03:41:08;;;;;;;14.05;5.60;;;;;;;14.68;100.00;101431.34;4735924;30;20048;-53
2022/10/17 03:43:38;;;;;;;10.15;5.72;;;;;;;14.68;100.00;101425.88;4753632;30;20435;-55
2022/10/17 03:46:06;;;;;;;13.45;5.90;;;;;;;14.69;100.00;101422.00;4750073;30;20044;-51
2022/10/17 03:48:35;;;;;;;7.88;5.65;;;;;;;14.72;100.00;101420.66;4738900;30;20086;-56
2022/10/17 03:51:08;;;;;;;8.05;5.35;;;;;;;14.72;100.00;101422.56;4768170;30;20052;-54
2022/10/17 03:53:42;;;;;;;10.98;5.43;;;;;;;14.72;100.00;101428.88;4753634;30;20040;-54
2022/10/17 03:56:15;;;;;;;11.88;5.70;;;;;;;14.72;100.00;101423.41;4737194;30;20071;-57
2022/10/17 03:58:45;;;;;;;12.35;5.75;;;;;;;14.72;100.00;101417.91;4739046;30;20139;-58
2022/10/17 04:01:15;;;;;;;14.73;5.78;;;;;;;14.73;100.00;101415.97;4752359;30;20052;-56
2022/10/17 04:03:52;;;;;;;7.78;5.13;;;;;;;14.74;100.00;101415.69;4748650;30;20045;-53
2022/10/17 04:06:20;;;;;;;12.85;5.43;;;;;;;14.75;100.00;101416.53;4740347;30;20045;-53
2022/10/17 04:08:49;;;;;;;14.05;6.78;;;;;;;14.75;100.00;101427.50;4751961;30;20106;-56
2022/10/17 04:11:22;;;;;;;8.38;5.60;;;;;;;14.75;100.00;101422.81;4752511;30;20049;-56
2022/10/17 04:13:54;;;;;;;9.85;6.03;;;;;;;14.75;100.00;101432.97;4751965;30;20080;-56
2022/10/17 04:16:24;;;;;;;12.55;5.70;;;;;;;14.74;100.00;101429.41;4746387;30;20640;-53
2022/10/17 04:19:01;;;;;;;10.88;5.65;;;;;;;14.74;100.00;101432.13;4750415;30;20044;-56
2022/10/17 04:21:34;;;;;;;10.50;5.95;;;;;;;14.74;100.00;101429.41;4748018;30;20044;-57
2022/10/17 04:24:08;;;;;;;9.88;5.85;;;;;;;14.75;100.00;101432.97;4748845;30;20040;-52
2022/10/17 04:26:44;;;;;;;12.43;5.60;;;;;;;14.75;100.00;101436.53;4748523;30;20435;-58
2022/10/17 04:29:14;;;;;;;13.10;6.05;;;;;;;14.77;100.00;101447.22;4752775;30;20044;-57
2022/10/17 04:31:44;;;;;;;13.10;5.75;;;;;;;14.80;100.00;101452.16;4752271;30;20083;-54
2022/10/17 04:34:21;;;;;;;10.65;5.47;;;;;;;14.81;100.00;101453.78;4758860;30;20044;-58
2022/10/17 04:36:50;;;;;;;13.00;6.03;;;;;;;14.83;100.00;101454.34;4749288;30;20048;-55
2022/10/17 04:39:19;;;;;;;11.23;5.20;;;;;;;14.85;100.00;101454.88;4761299;30;20045;-55
2022/10/17 04:41:47;;;;;;;8.98;5.10;;;;;;;14.88;100.00;101452.38;4751468;30;20048;-57
2022/10/17 04:44:15;;;;;;;11.88;5.60;;;;;;;14.91;100.00;101453.75;4751378;30;20052;-52
2022/10/17 04:46:49;;;;;;;8.70;4.82;;;;;;;14.96;100.00;101461.13;4751718;30;20048;-52
2022/10/17 04:49:16;;;;;;;9.52;5.25;;;;;;;14.97;100.00;101457.28;4749934;30;20557;-53
2022/10/17 04:51:48;;;;;;;10.40;5.22;;;;;;;14.98;100.00;101464.41;4745386;30;20048;-56
2022/10/17 04:54:36;;;;;;;10.00;5.45;;;;;;;14.99;100.00;101466.88;4751381;30;20059;-53
2022/10/17 04:57:08;;;;;;;8.63;4.80;;;;;;;15.00;100.00;101473.19;4750712;30;20101;-55
2022/10/17 04:59:36;;;;;;;8.43;4.68;;;;;;;15.01;100.00;101477.56;4767321;30;20468;-54
2022/10/17 05:02:27;;;;;;;8.80;5.15;;;;;;;15.02;100.00;101481.97;4733397;30;20048;-52
2022/10/17 05:04:55;;;;;;;11.30;5.50;;;;;;;15.01;100.00;101475.66;4736645;30;20044;-55
2022/10/17 05:07:23;;;;;;;14.73;5.93;;;;;;;15.02;100.00;101481.97;4751965;30;20068;-55
2022/10/17 05:10:03;;;;;;;13.88;5.03;;;;;;;15.02;100.00;101490.19;4752594;30;20051;-55
2022/10/17 05:12:32;;;;;;;8.82;4.53;;;;;;;15.01;100.00;101483.91;4750940;30;20048;-56
2022/10/17 05:14:59;;;;;;;11.40;4.90;;;;;;;15.00;100.00;101487.72;4750438;30;20056;-58
2022/10/17 05:17:28;;;;;;;13.48;5.40;;;;;;;15.01;100.00;101485.78;4766146;30;20074;-57
2022/10/17 05:19:56;;;;;;;9.10;4.90;;;;;;;15.00;100.00;101489.66;4753439;30;20450;-58
2022/10/17 05:22:23;;;;;;;11.55;5.38;;;;;;;15.00;100.00;101479.50;4752282;30;20048;-55
2022/10/17 05:24:51;;;;;;;12.27;5.63;;;;;;;15.01;100.00;101480.31;4751972;30;20051;-56
2022/10/17 05:27:19;;;;;;;14.77;5.32;;;;;;;14.99;100.00;101482.53;4751969;30;20060;-57
2022/10/17 05:29:46;;;;;;;8.43;5.20;;;;;;;14.99;100.00;101493.50;4752330;30;20516;-56
2022/10/17 05:32:23;;;;;;;8.23;5.30;;;;;;;14.99;100.00;101496.25;4766735;30;20040;-55
2022/10/17 05:34:50;;;;;;;12.55;5.65;;;;;;;14.99;100.00;101493.50;4751095;30;20051;-54
2022/10/17 05:37:19;;;;;;;10.65;5.50;;;;;;;14.98;100.00;101508.31;4751493;30;20408;-54
2022/10/17 05:39:50;;;;;;;9.07;5.20;;;;;;;14.98;100.00;101508.31;4750758;30;20114;-55
2022/10/17 05:42:19;;;;;;;11.32;5.28;;;;;;;14.97;100.00;101513.00;4751915;30;20512;-56
2022/10/17 05:44:47;;;;;;;9.52;4.93;;;;;;;14.96;100.00;101507.78;4752164;30;20087;-58
2022/10/17 05:47:17;;;;;;;10.30;5.47;;;;;;;14.97;100.00;101520.41;4735023;30;20060;-58
2022/10/17 05:49:45;;;;;;;8.93;5.03;;;;;;;14.96;100.00;101505.88;4736996;30;20040;-58
2022/10/17 05:52:24;;;;;;;9.25;4.90;;;;;;;14.96;100.00;101510.53;4091619;30;10000646;-57
2022/10/17 05:55:11;;;;;;;9.15;5.13;;;;;;;14.95;100.00;101508.88;4752912;30;20135;-57
2022/10/17 05:57:39;;;;;;;10.00;5.10;;;;;;;14.96;100.00;101510.53;4761618;30;20467;-58
2022/10/17 06:00:13;;;;;;;11.38;5.57;;;;;;;14.97;100.00;101517.66;4748353;30;20113;-50
2022/10/17 06:02:50;;;;;;;11.77;5.40;;;;;;;14.98;100.00;101522.03;4748181;30;20052;-52
2022/10/17 06:05:19;;;;;;;9.05;5.60;;;;;;;14.98;100.00;101522.84;4740886;30;20511;-54
2022/10/17 06:07:49;;;;;;;8.75;5.50;;;;;;;14.99;100.00;101515.47;4748141;30;20067;-54
2022/10/17 06:10:17;;;;;;;8.75;5.25;;;;;;;14.99;100.00;101516.28;4749595;30;20060;-51
2022/10/17 06:12:45;;;;;;;9.75;5.00;;;;;;;15.01;100.00;101524.22;4748486;30;20484;-57
2022/10/17 06:15:14;;;;;;;14.13;5.38;;;;;;;15.01;100.00;101524.22;4737954;30;20742;-54
2022/10/17 06:17:46;;;;;;;10.45;5.38;;;;;;;15.02;100.00;101521.19;4746812;30;20048;-48
2022/10/17 06:20:14;;;;;;;7.88;4.75;;;;;;;15.01;100.00;101518.72;4754002;30;20069;-50
2022/10/17 06:22:42;;;;;;;11.45;5.13;;;;;;;15.02;100.00;101525.88;4733090;30;20059;-53
2022/10/17 06:25:15;;;;;;;10.40;4.80;;;;;;;15.03;100.00;101533.00;4748385;30;20408;-51
2022/10/17 06:27:43;;;;;;;9.50;5.60;;;;;;;15.03;100.00;101539.31;4748003;30;20076;-55
2022/10/17 06:30:11;;;;;;;14.40;5.63;;;;;;;15.03;100.00;101538.47;4747868;30;20420;-54
2022/10/17 06:32:40;;;;;;;7.78;4.97;;;;;;;15.04;100.00;101523.69;4746366;30;20435;-52
2022/10/17 06:35:08;;;;;;;11.02;5.35;;;;;;;15.05;100.00;101525.31;4748204;30;20071;-51
2022/10/17 06:37:36;;;;;;;12.60;5.43;;;;;;;15.06;100.00;101535.19;4751753;30;20040;-50
2022/10/17 06:40:09;;;;;;;11.32;5.70;;;;;;;15.05;100.00;101534.34;4757968;30;20062;-54
2022/10/17 06:42:40;;;;;;;10.05;5.70;;;;;;;15.07;100.00;101534.09;4755858;30;20044;-52
2022/10/17 06:45:27;;;;;;;8.13;5.15;;;;;;;15.08;100.00;101535.72;4749575;30;20048;-50
2022/10/17 06:48:07;;;;;;;13.40;5.20;;;;;;;15.09;100.00;101531.88;4753969;30;20101;-55
2022/10/17 06:50:43;;;;;;;11.00;5.13;;;;;;;15.08;100.00;101527.47;4761057;30;20542;-50
2022/10/17 06:53:15;;;;;;;8.77;4.68;;;;;;;15.10;100.00;101533.50;4770291;30;20045;-53
2022/10/17 06:56:06;;;;;;;9.80;4.97;;;;;;;15.11;100.00;101541.47;4739399;30;20122;-50
2022/10/17 06:58:59;;;;;;;12.60;5.47;;;;;;;15.13;100.00;101549.44;4732942;30;20053;-54
2022/10/17 07:01:34;;;;;;;9.85;4.82;;;;;;;15.13;100.00;101546.69;4759701;30;20116;-52
2022/10/17 07:04:03;;;;;;;12.90;5.22;;;;;;;15.15;100.00;101558.19;4743763;30;20103;-50
2022/10/17 07:06:33;;;;;;;11.55;5.38;;;;;;;15.18;100.00;101560.41;4739611;30;20516;-54
2022/10/17 07:09:09;;;;;;;10.55;4.80;;;;;;;15.22;100.00;101546.91;4754218;30;20052;-53
2022/10/17 07:11:39;;;;;;;13.77;5.70;;;;;;;15.22;100.00;101547.72;4753595;30;20055;-50
2022/10/17 07:14:06;;;;;;;10.50;5.35;;;;;;;15.24;100.00;101559.25;4745624;30;20103;-51
2022/10/17 07:16:34;;;;;;;12.23;5.30;;;;;;;15.26;100.00;101548.00;4748567;30;20056;-51
2022/10/17 07:19:08;;;;;;;11.13;5.18;;;;;;;15.28;100.00;101549.38;4758676;30;20512;-54
2022/10/17 07:21:38;;;;;;;10.73;5.25;;;;;;;15.30;100.00;101551.84;4765012;30;20587;-51
2022/10/17 07:24:07;;;;;;;10.35;4.45;;;;;;;15.32;100.00;101558.69;4750638;30;20377;-53
2022/10/17 07:26:35;;;;;;;7.80;5.05;;;;;;;15.34;100.00;101559.22;4753270;30;20082;-58
2022/10/17 07:29:05;;;;;;;10.32;5.13;;;;;;;15.34;100.00;101564.72;4746621;30;20051;-49
2022/10/17 07:31:53;;;;;;;9.00;5.18;;;;;;;15.38;100.00;101566.91;4745051;30;20060;-52
2022/10/17 07:34:20;;;;;;;8.05;4.97;;;;;;;15.40;100.00;101581.16;4753963;30;20105;-59
2022/10/17 07:36:50;;;;;;;10.85;5.20;;;;;;;15.40;100.00;101582.00;4753454;30;20094;-51
2022/10/17 07:39:18;;;;;;;10.50;5.13;;;;;;;15.41;100.00;101591.03;4753504;30;20048;-57
2022/10/17 07:41:47;;;;;;;9.23;5.15;;;;;;;15.41;100.00;101594.59;4754446;30;20044;-53
2022/10/17 07:44:15;;;;;;;14.48;5.20;;;;;;;15.44;100.00;101598.72;4752321;30;20436;-54
2022/10/17 07:46:47;;;;;;;10.65;4.80;;;;;;;15.45;100.00;101614.91;4747420;30;20044;-51
2022/10/17 07:49:16;;;;;;;10.98;5.45;;;;;;;15.46;100.00;101635.78;4753751;30;20048;-51
2022/10/17 07:51:43;;;;;;;13.15;5.55;;;;;;;15.48;100.00;101655.53;4752211;30;20070;-55
2022/10/17 07:54:16;;;;;;;10.77;5.70;;;;;;;15.47;100.00;101670.38;4750467;30;20094;-52
2022/10/17 07:56:49;;;;;;;14.00;5.60;;;;;;;15.48;100.00;101684.94;4753816;30;20048;-50
2022/10/17 07:59:17;;;;;;;14.60;5.55;;;;;;;15.47;100.00;101688.81;4753885;30;20076;-51
2022/10/17 08:01:45;;;;;;;14.25;5.57;;;;;;;15.48;100.00;101695.94;4754302;30;20052;-54
2022/10/17 08:04:13;;;;;;;10.40;4.68;;;;;;;15.51;100.00;101728.31;4755707;30;20044;-54
2022/10/17 08:06:40;;;;;;;21.10;6.07;;;;;;;15.60;100.00;101709.34;4755898;30;20531;-51
2022/10/17 08:09:08;;;;;;;17.98;6.45;;;;;;;15.67;100.00;101702.44;4754252;30;20040;-51
2022/10/17 08:11:36;;;;;;;17.10;5.50;;;;;;;15.71;100.00;101697.25;4750101;30;20041;-52
2022/10/17 08:14:03;;;;;;;15.55;4.80;;;;;;;15.72;100.00;101702.44;4754471;30;20059;-49
2022/10/17 08:16:31;;;;;;;16.65;5.22;;;;;;;15.73;100.00;101711.53;4753208;30;20083;-50
2022/10/17 08:18:59;;;;;;;11.35;5.30;;;;;;;15.71;100.00;101709.06;4754562;30;20101;-53
2022/10/17 08:21:27;;;;;;;9.88;4.65;;;;;;;15.71;100.00;101697.25;4752594;30;20061;-50
2022/10/17 08:23:54;;;;;;;13.65;5.20;;;;;;;15.71;100.00;101695.31;4751077;30;20090;-50
2022/10/17 08:26:22;;;;;;;13.57;5.25;;;;;;;15.67;100.00;101705.19;4752767;30;20048;-52
2022/10/17 08:28:49;;;;;;;13.23;5.45;;;;;;;15.66;100.00;101731.03;4753823;30;20051;-53
2022/10/17 08:31:19;;;;;;;13.02;5.75;;;;;;;15.68;100.00;101750.81;4737670;30;20155;-51
2022/10/17 08:33:48;;;;;;;15.82;5.20;;;;;;;15.72;100.00;101762.91;4746623;30;20048;-52
2022/10/17 08:36:18;;;;;;;11.23;4.50;;;;;;;15.72;100.00;101782.13;4752454;30;20048;-52
2022/10/17 08:38:45;;;;;;;14.45;4.93;;;;;;;15.72;100.00;101784.06;4753707;30;20090;-56
2022/10/17 08:41:50;;;;;;;14.30;5.03;;;;;;;15.73;100.00;101764.56;4752777;30;20058;-53
2022/10/17 08:44:42;;;;;;;13.73;5.20;;;;;;;15.73;100.00;101764.56;4753941;30;20472;-50
2022/10/17 08:47:19;;;;;;;9.77;4.57;;;;;;;15.71;100.00;101761.28;4744353;30;20106;-52
2022/10/17 08:50:05;;;;;;;10.30;4.57;;;;;;;15.72;100.00;101765.66;4766938;30;20060;-51
2022/10/17 08:52:48;;;;;;;11.95;4.60;;;;;;;15.72;100.00;101768.41;4749356;30;20105;-50
2022/10/17 08:55:40;;;;;;;15.18;5.40;;;;;;;15.72;100.00;101759.34;4763281;30;20487;-51
2022/10/17 08:58:21;;;;;;;10.30;4.70;;;;;;;15.70;100.00;101762.34;4745558;30;20136;-52
2022/10/17 09:00:57;;;;;;;12.27;5.65;;;;;;;15.69;100.00;101770.88;4751894;30;20049;-50
2022/10/17 09:03:51;;;;;;;8.27;4.53;;;;;;;15.68;100.00;101764.56;4752965;30;20109;-52
2022/10/17 09:06:38;;;;;;;8.98;4.10;;;;;;;15.67;100.00;101773.88;4727809;30;20052;-53
2022/10/17 09:09:21;;;;;;;9.38;4.22;;;;;;;15.67;100.00;101773.88;4738279;30;20068;-51
2022/10/17 09:11:51;;;;;;;10.93;4.28;;;;;;;15.64;100.00;101757.16;4749951;30;20458;-52
2022/10/17 09:14:34;;;;;;;9.35;4.50;;;;;;;15.62;100.00;101759.34;4751197;30;20100;-53
2022/10/17 09:17:22;;;;;;;10.80;5.18;;;;;;;15.63;100.00;101775.53;4743836;30;20048;-53
2022/10/17 09:20:13;;;;;;;13.10;5.82;;;;;;;15.62;100.00;101782.13;4746851;30;20099;-53
2022/10/17 09:22:47;;;;;;;24.27;12.50;;;;;;;15.61;100.00;101783.25;4752049;30;20048;-51
2022/10/17 09:25:17;;;;;;;13.20;8.30;;;;;;;15.61;100.00;101799.75;4752611;30;20052;-50
2022/10/17 09:28:09;;;;;;;9.73;5.30;;;;;;;15.61;100.00;101821.72;4750000;30;20114;-55
2022/10/17 09:30:43;;;;;;;11.13;5.13;;;;;;;15.61;100.00;101818.97;4752601;30;20110;-54
2022/10/17 09:33:16;;;;;;;12.95;5.10;;;;;;;15.59;100.00;101820.34;4752235;30;20078;-53
2022/10/17 09:36:22;;;;;;;14.18;6.10;;;;;;;15.60;100.00;101836.53;4752506;30;20056;-52
2022/10/17 09:39:12;;;;;;;12.57;5.45;;;;;;;15.61;100.00;101829.09;4749697;30;20134;-53
2022/10/17 09:41:47;;;;;;;11.95;5.05;;;;;;;15.62;100.00;101765.66;4751652;30;20124;-54
2022/10/17 09:44:29;;;;;;;10.95;4.75;;;;;;;15.61;100.00;101735.69;4750407;30;20063;-49
2022/10/17 09:47:11;;;;;;;8.80;4.82;;;;;;;15.61;100.00;101719.22;4749324;30;20047;-51
2022/10/17 09:49:41;;;;;;;9.82;4.65;;;;;;;15.62;100.00;101732.69;4747104;30;20098;-51
2022/10/17 09:52:20;;;;;;;10.13;4.68;;;;;;;15.63;100.00;101750.81;4752464;30;20531;-52
2022/10/17 09:54:51;;;;;;;9.15;4.15;;;;;;;15.64;100.00;101763.47;4749189;30;20129;-55
2022/10/17 09:57:20;;;;;;;11.52;4.75;;;;;;;15.65;100.00;101781.56;4750577;30;20499;-52
2022/10/17 10:00:02;;;;;;;15.05;5.60;;;;;;;15.68;100.00;101805.75;4752546;30;20098;-54
2022/10/17 10:02:41;;;;;;;13.18;5.32;;;;;;;15.69;100.00;101820.31;4751386;30;20489;-56
2022/10/17 10:05:19;;;;;;;11.15;5.70;;;;;;;15.68;100.00;101792.03;4750329;30;20052;-55
2022/10/17 10:08:05;;;;;;;14.88;5.70;;;;;;;15.68;100.00;101803.03;4750555;30;20056;-51
2022/10/17 10:10:33;;;;;;;11.80;5.90;;;;;;;15.67;100.00;101798.59;4751318;30;20040;-56
2022/10/17 10:13:14;;;;;;;10.05;5.50;;;;;;;15.69;100.00;101779.09;4751130;30;20135;-55
2022/10/17 10:15:44;;;;;;;10.75;5.38;;;;;;;15.69;100.00;101771.69;4764804;30;20072;-54
2022/10/17 10:18:24;;;;;;;10.50;5.25;;;;;;;15.69;100.00;101777.19;4086785;30;10000183;-56
2022/10/17 10:21:16;;;;;;;11.77;5.95;;;;;;;15.69;100.00;101782.66;4747984;30;20151;-54
2022/10/17 10:24:05;;;;;;;11.80;5.47;;;;;;;15.70;100.00;101784.34;4747184;30;20052;-56
2022/10/17 10:26:48;;;;;;;9.32;5.38;;;;;;;15.71;100.00;101805.22;4740864;30;20047;-49
2022/10/17 10:29:38;;;;;;;8.60;4.90;;;;;;;15.72;100.00;101809.63;4748103;30;20052;-54
2022/10/17 10:32:14;;;;;;;8.18;5.32;;;;;;;15.73;100.00;101811.28;4746774;30;20052;-53
2022/10/17 10:34:56;;;;;;;12.55;5.72;;;;;;;15.75;100.00;101816.47;4736158;30;20051;-54
2022/10/17 10:37:23;;;;;;;13.35;5.78;;;;;;;15.77;100.00;101820.59;4745540;30;20048;-55
2022/10/17 10:40:00;;;;;;;10.20;5.15;;;;;;;15.80;100.00;101832.13;4752737;30;20459;-53
2022/10/17 10:42:36;;;;;;;14.45;5.68;;;;;;;15.82;100.00;101838.16;4746567;30;20503;-51
2022/10/17 10:45:14;;;;;;;9.45;5.20;;;;;;;15.83;100.00;101837.09;4766116;30;20127;-54
2022/10/17 10:48:15;;;;;;;16.85;6.15;;;;;;;15.85;100.00;101841.19;4751016;30;20083;-55
2022/10/17 10:50:47;;;;;;;13.95;6.10;;;;;;;15.86;100.00;101844.78;4765844;30;20052;-55
2022/10/17 10:53:44;;;;;;;12.55;6.30;;;;;;;15.85;100.00;101860.44;4747379;30;20063;-54
2022/10/17 10:56:11;;;;;;;11.80;6.10;;;;;;;15.85;100.00;101867.84;4755187;30;20110;-53
2022/10/17 10:59:18;;;;;;;9.93;5.90;;;;;;;15.84;100.00;101872.53;4752452;30;20044;-51
2022/10/17 11:01:54;;;;;;;11.40;5.38;;;;;;;15.82;100.00;101873.91;4732236;30;20044;-51
2022/10/17 11:04:26;;;;;;;15.45;5.95;;;;;;;15.84;100.00;101877.19;4746014;30;20079;-55
2022/10/17 11:07:03;;;;;;;10.35;6.05;;;;;;;15.84;100.00;101878.00;4778191;30;20041;-50
2022/10/17 11:10:03;;;;;;;12.50;6.22;;;;;;;15.83;100.00;101886.56;4760521;30;20059;-51
2022/10/17 11:12:41;;;;;;;12.45;6.07;;;;;;;15.82;100.00;101890.38;4722641;30;20484;-54
2022/10/17 11:15:33;;;;;;;7.72;5.03;;;;;;;15.81;100.00;101897.00;4755784;30;20052;-50
2022/10/17 11:18:07;;;;;;;9.07;4.93;;;;;;;15.81;100.00;101897.81;4762988;30;20052;-51
2022/10/17 11:20:52;;;;;;;8.27;4.43;;;;;;;15.82;100.00;101901.38;4758579;30;20077;-55
2022/10/17 11:23:27;;;;;;;8.50;4.82;;;;;;;15.84;100.00;101901.94;4750726;30;20048;-53
2022/10/17 11:25:57;;;;;;;10.07;4.40;;;;;;;15.84;100.00;101904.69;4761811;30;20064;-52
2022/10/17 11:28:25;;;;;;;6.68;4.38;;;;;;;15.84;100.00;101911.00;4750205;30;20455;-54
2022/10/17 11:31:08;;;;;;;7.68;4.63;;;;;;;15.84;100.00;101921.16;4750364;30;20109;-57
2022/10/17 11:34:03;;;;;;;8.02;4.53;;;;;;;15.86;100.00;101924.47;4762454;30;20138;-54
2022/10/17 11:36:39;;;;;;;6.43;4.03;;;;;;;15.86;100.00;101924.47;4751459;30;20059;-51
2022/10/17 11:39:10;;;;;;;8.63;4.38;;;;;;;15.86;100.00;101924.47;4750149;30;20048;-50
2022/10/17 11:41:54;;;;;;;8.55;4.28;;;;;;;15.86;100.00;101936.28;4764858;30;20056;-50
2022/10/17 11:44:35;;;;;;;10.75;5.00;;;;;;;15.86;100.00;101935.47;4739072;30;20045;-52
2022/10/17 11:47:31;;;;;;;7.25;4.75;;;;;;;15.86;100.00;101935.47;4750872;30;20093;-55